sensor_id;sensor_type;location;lat;lon;timestamp;temperature;humidity
51661;DHT22;37741;49.748;8.490;2023-04-25T00:01:16;12.30;74.10
51661;DHT22;37741;49.748;8.490;2023-04-25T00:03:42;12.30;74.10
51661;DHT22;37741;49.748;8.490;2023-04-25T00:06:08;12.30;74.20
51661;DHT22;37741;49.748;8.490;2023-04-25T00:08:34;12.30;74.30
51661;DHT22;37741;49.748;8.490;2023-04-25T00:11:00;12.30;74.30
51661;DHT22;37741;49.748;8.490;2023-04-25T00:13:26;12.30;74.40
51661;DHT22;37741;49.748;8.490;2023-04-25T00:15:52;12.20;74.50
51661;DHT22;37741;49.748;8.490;2023-04-25T00:18:22;12.20;74.50
51661;DHT22;37741;49.748;8.490;2023-04-25T00:20:48;12.20;74.60
51661;DHT22;37741;49.748;8.490;2023-04-25T00:23:14;12.20;74.70
51661;DHT22;37741;49.748;8.490;2023-04-25T00:25:47;12.20;74.70
51661;DHT22;37741;49.748;8.490;2023-04-25T00:28:13;12.20;74.80
51661;DHT22;37741;49.748;8.490;2023-04-25T00:30:40;12.20;75.50
51661;DHT22;37741;49.748;8.490;2023-04-25T00:33:06;12.10;74.80
51661;DHT22;37741;49.748;8.490;2023-04-25T00:35:32;12.10;74.90
51661;DHT22;37741;49.748;8.490;2023-04-25T00:37:58;12.10;74.90
51661;DHT22;37741;49.748;8.490;2023-04-25T00:40:23;12.10;75.00
51661;DHT22;37741;49.748;8.490;2023-04-25T00:42:52;12.10;75.10
51661;DHT22;37741;49.748;8.490;2023-04-25T00:45:17;12.10;75.10
51661;DHT22;37741;49.748;8.490;2023-04-25T00:47:43;12.10;75.80
51661;DHT22;37741;49.748;8.490;2023-04-25T00:50:10;12.10;75.10
51661;DHT22;37741;49.748;8.490;2023-04-25T00:52:38;12.10;75.10
51661;DHT22;37741;49.748;8.490;2023-04-25T00:55:06;12.10;75.20
51661;DHT22;37741;49.748;8.490;2023-04-25T00:57:32;12.00;75.10
51661;DHT22;37741;49.748;8.490;2023-04-25T00:59:58;12.00;75.20
51661;DHT22;37741;49.748;8.490;2023-04-25T01:02:24;12.00;75.30
51661;DHT22;37741;49.748;8.490;2023-04-25T01:04:51;12.00;75.20
51661;DHT22;37741;49.748;8.490;2023-04-25T01:07:17;12.00;75.30
51661;DHT22;37741;49.748;8.490;2023-04-25T01:09:42;12.00;75.30
51661;DHT22;37741;49.748;8.490;2023-04-25T01:12:08;11.90;75.30
51661;DHT22;37741;49.748;8.490;2023-04-25T01:14:34;12.00;75.40
51661;DHT22;37741;49.748;8.490;2023-04-25T01:17:00;11.90;75.40
51661;DHT22;37741;49.748;8.490;2023-04-25T01:19:26;11.90;75.50
51661;DHT22;37741;49.748;8.490;2023-04-25T01:21:52;11.80;75.50
51661;DHT22;37741;49.748;8.490;2023-04-25T01:24:18;11.90;75.60
51661;DHT22;37741;49.748;8.490;2023-04-25T01:26:44;11.90;75.70
51661;DHT22;37741;49.748;8.490;2023-04-25T01:29:19;11.90;75.80
51661;DHT22;37741;49.748;8.490;2023-04-25T01:31:45;11.80;75.80
51661;DHT22;37741;49.748;8.490;2023-04-25T01:34:12;11.80;75.70
51661;DHT22;37741;49.748;8.490;2023-04-25T01:36:38;11.80;75.80
51661;DHT22;37741;49.748;8.490;2023-04-25T01:39:04;11.90;75.80
51661;DHT22;37741;49.748;8.490;2023-04-25T01:41:30;11.80;75.90
51661;DHT22;37741;49.748;8.490;2023-04-25T01:43:56;11.80;76.00
51661;DHT22;37741;49.748;8.490;2023-04-25T01:46:22;11.80;76.00
51661;DHT22;37741;49.748;8.490;2023-04-25T01:48:48;11.80;76.00
51661;DHT22;37741;49.748;8.490;2023-04-25T01:51:13;11.80;76.10
51661;DHT22;37741;49.748;8.490;2023-04-25T01:53:39;11.80;76.20
51661;DHT22;37741;49.748;8.490;2023-04-25T01:56:05;11.70;76.20
51661;DHT22;37741;49.748;8.490;2023-04-25T01:58:31;11.70;76.20
51661;DHT22;37741;49.748;8.490;2023-04-25T02:00:56;11.70;76.20
51661;DHT22;37741;49.748;8.490;2023-04-25T02:03:22;11.70;76.30
51661;DHT22;37741;49.748;8.490;2023-04-25T02:05:48;11.70;76.30
51661;DHT22;37741;49.748;8.490;2023-04-25T02:08:13;11.70;76.40
51661;DHT22;37741;49.748;8.490;2023-04-25T02:10:39;11.60;76.30
51661;DHT22;37741;49.748;8.490;2023-04-25T02:13:05;11.70;76.50
51661;DHT22;37741;49.748;8.490;2023-04-25T02:15:31;11.70;76.40
51661;DHT22;37741;49.748;8.490;2023-04-25T02:17:57;11.60;76.40
51661;DHT22;37741;49.748;8.490;2023-04-25T02:20:24;11.60;76.50
51661;DHT22;37741;49.748;8.490;2023-04-25T02:22:50;11.60;76.50
51661;DHT22;37741;49.748;8.490;2023-04-25T02:25:16;11.60;76.60
51661;DHT22;37741;49.748;8.490;2023-04-25T02:27:42;11.60;76.60
51661;DHT22;37741;49.748;8.490;2023-04-25T02:30:08;11.60;76.60
51661;DHT22;37741;49.748;8.490;2023-04-25T02:32:34;11.60;76.60
51661;DHT22;37741;49.748;8.490;2023-04-25T02:35:00;11.60;76.70
51661;DHT22;37741;49.748;8.490;2023-04-25T02:37:30;11.60;76.80
51661;DHT22;37741;49.748;8.490;2023-04-25T02:39:56;11.50;76.70
51661;DHT22;37741;49.748;8.490;2023-04-25T02:42:22;11.60;76.80
51661;DHT22;37741;49.748;8.490;2023-04-25T02:44:47;11.60;76.80
51661;DHT22;37741;49.748;8.490;2023-04-25T02:47:13;11.60;76.70
51661;DHT22;37741;49.748;8.490;2023-04-25T02:49:38;11.50;76.70
51661;DHT22;37741;49.748;8.490;2023-04-25T02:52:04;11.50;76.80
51661;DHT22;37741;49.748;8.490;2023-04-25T02:54:30;11.50;76.80
51661;DHT22;37741;49.748;8.490;2023-04-25T02:56:56;11.50;76.90
51661;DHT22;37741;49.748;8.490;2023-04-25T02:59:21;11.50;76.90
51661;DHT22;37741;49.748;8.490;2023-04-25T03:01:47;11.50;76.80
51661;DHT22;37741;49.748;8.490;2023-04-25T03:04:13;11.50;76.80
51661;DHT22;37741;49.748;8.490;2023-04-25T03:06:38;11.50;76.90
51661;DHT22;37741;49.748;8.490;2023-04-25T03:09:04;11.40;76.90
51661;DHT22;37741;49.748;8.490;2023-04-25T03:11:29;11.50;77.00
51661;DHT22;37741;49.748;8.490;2023-04-25T03:13:55;11.40;76.90
51661;DHT22;37741;49.748;8.490;2023-04-25T03:16:21;11.40;76.90
51661;DHT22;37741;49.748;8.490;2023-04-25T03:18:47;11.40;77.00
51661;DHT22;37741;49.748;8.490;2023-04-25T03:21:13;11.40;77.00
51661;DHT22;37741;49.748;8.490;2023-04-25T03:23:38;11.40;77.00
51661;DHT22;37741;49.748;8.490;2023-04-25T03:26:04;11.40;77.00
51661;DHT22;37741;49.748;8.490;2023-04-25T03:28:29;11.40;77.10
51661;DHT22;37741;49.748;8.490;2023-04-25T03:30:55;11.40;77.10
51661;DHT22;37741;49.748;8.490;2023-04-25T03:33:21;11.40;77.20
51661;DHT22;37741;49.748;8.490;2023-04-25T03:35:46;11.30;77.00
51661;DHT22;37741;49.748;8.490;2023-04-25T03:38:12;11.30;77.10
51661;DHT22;37741;49.748;8.490;2023-04-25T03:40:38;11.30;77.00
51661;DHT22;37741;49.748;8.490;2023-04-25T03:43:03;11.30;77.10
51661;DHT22;37741;49.748;8.490;2023-04-25T03:45:29;11.30;77.20
51661;DHT22;37741;49.748;8.490;2023-04-25T03:47:55;11.30;77.20
51661;DHT22;37741;49.748;8.490;2023-04-25T03:50:20;11.30;77.30
51661;DHT22;37741;49.748;8.490;2023-04-25T03:52:46;11.30;77.20
51661;DHT22;37741;49.748;8.490;2023-04-25T03:55:11;11.30;77.30
51661;DHT22;37741;49.748;8.490;2023-04-25T03:57:37;11.30;77.30
51661;DHT22;37741;49.748;8.490;2023-04-25T04:00:03;11.30;77.40
51661;DHT22;37741;49.748;8.490;2023-04-25T04:02:29;11.30;77.40
51661;DHT22;37741;49.748;8.490;2023-04-25T04:04:55;11.30;77.40
51661;DHT22;37741;49.748;8.490;2023-04-25T04:07:21;11.30;77.40
51661;DHT22;37741;49.748;8.490;2023-04-25T04:09:47;11.20;77.30
51661;DHT22;37741;49.748;8.490;2023-04-25T04:12:13;11.20;77.40
51661;DHT22;37741;49.748;8.490;2023-04-25T04:14:40;11.20;77.30
51661;DHT22;37741;49.748;8.490;2023-04-25T04:17:05;11.20;77.50
51661;DHT22;37741;49.748;8.490;2023-04-25T04:19:31;11.20;77.50
51661;DHT22;37741;49.748;8.490;2023-04-25T04:21:56;11.20;77.50
51661;DHT22;37741;49.748;8.490;2023-04-25T04:24:23;11.20;77.50
51661;DHT22;37741;49.748;8.490;2023-04-25T04:26:49;11.20;77.40
51661;DHT22;37741;49.748;8.490;2023-04-25T04:29:16;11.10;77.40
51661;DHT22;37741;49.748;8.490;2023-04-25T04:31:48;11.20;77.50
51661;DHT22;37741;49.748;8.490;2023-04-25T04:34:13;11.20;77.50
51661;DHT22;37741;49.748;8.490;2023-04-25T04:36:39;11.20;77.70
51661;DHT22;37741;49.748;8.490;2023-04-25T04:39:06;11.20;77.60
51661;DHT22;37741;49.748;8.490;2023-04-25T04:41:31;11.10;77.60
51661;DHT22;37741;49.748;8.490;2023-04-25T04:43:57;11.10;77.50
51661;DHT22;37741;49.748;8.490;2023-04-25T04:46:23;11.10;77.50
51661;DHT22;37741;49.748;8.490;2023-04-25T04:48:57;11.20;77.70
51661;DHT22;37741;49.748;8.490;2023-04-25T04:51:23;11.10;77.70
51661;DHT22;37741;49.748;8.490;2023-04-25T04:53:49;11.10;78.30
51661;DHT22;37741;49.748;8.490;2023-04-25T04:56:15;11.10;77.70
51661;DHT22;37741;49.748;8.490;2023-04-25T04:58:41;11.10;77.80
51661;DHT22;37741;49.748;8.490;2023-04-25T05:01:06;11.10;77.80
51661;DHT22;37741;49.748;8.490;2023-04-25T05:03:32;11.10;77.70
51661;DHT22;37741;49.748;8.490;2023-04-25T05:05:58;11.10;77.80
51661;DHT22;37741;49.748;8.490;2023-04-25T05:08:24;11.00;77.80
51661;DHT22;37741;49.748;8.490;2023-04-25T05:10:49;11.00;77.80
51661;DHT22;37741;49.748;8.490;2023-04-25T05:13:15;11.00;78.00
51661;DHT22;37741;49.748;8.490;2023-04-25T05:15:41;11.00;78.00
51661;DHT22;37741;49.748;8.490;2023-04-25T05:18:06;11.00;78.10
51661;DHT22;37741;49.748;8.490;2023-04-25T05:20:32;10.90;78.20
51661;DHT22;37741;49.748;8.490;2023-04-25T05:22:57;10.90;78.20
51661;DHT22;37741;49.748;8.490;2023-04-25T05:25:23;10.90;78.20
51661;DHT22;37741;49.748;8.490;2023-04-25T05:27:48;10.90;78.30
51661;DHT22;37741;49.748;8.490;2023-04-25T05:30:16;10.90;78.10
51661;DHT22;37741;49.748;8.490;2023-04-25T05:32:41;10.80;78.10
51661;DHT22;37741;49.748;8.490;2023-04-25T05:35:07;10.80;78.10
51661;DHT22;37741;49.748;8.490;2023-04-25T05:37:34;10.80;78.30
51661;DHT22;37741;49.748;8.490;2023-04-25T05:39:59;10.80;78.30
51661;DHT22;37741;49.748;8.490;2023-04-25T05:42:25;10.80;78.40
51661;DHT22;37741;49.748;8.490;2023-04-25T05:44:51;10.80;78.50
51661;DHT22;37741;49.748;8.490;2023-04-25T05:47:17;10.80;78.50
51661;DHT22;37741;49.748;8.490;2023-04-25T05:49:42;10.70;78.50
51661;DHT22;37741;49.748;8.490;2023-04-25T05:52:08;10.70;78.70
51661;DHT22;37741;49.748;8.490;2023-04-25T05:54:33;10.80;78.60
51661;DHT22;37741;49.748;8.490;2023-04-25T05:56:59;10.70;78.50
51661;DHT22;37741;49.748;8.490;2023-04-25T05:59:25;10.70;78.20
51661;DHT22;37741;49.748;8.490;2023-04-25T06:01:51;10.70;77.90
51661;DHT22;37741;49.748;8.490;2023-04-25T06:04:17;10.70;78.10
51661;DHT22;37741;49.748;8.490;2023-04-25T06:06:42;10.70;78.00
51661;DHT22;37741;49.748;8.490;2023-04-25T06:09:08;10.70;77.20
51661;DHT22;37741;49.748;8.490;2023-04-25T06:11:33;10.60;77.40
51661;DHT22;37741;49.748;8.490;2023-04-25T06:13:59;10.60;77.30
51661;DHT22;37741;49.748;8.490;2023-04-25T06:16:25;10.60;77.40
51661;DHT22;37741;49.748;8.490;2023-04-25T06:18:51;10.60;77.10
51661;DHT22;37741;49.748;8.490;2023-04-25T06:21:17;10.60;77.30
51661;DHT22;37741;49.748;8.490;2023-04-25T06:23:42;10.60;77.20
51661;DHT22;37741;49.748;8.490;2023-04-25T06:26:08;10.50;76.50
51661;DHT22;37741;49.748;8.490;2023-04-25T06:28:33;10.60;76.60
51661;DHT22;37741;49.748;8.490;2023-04-25T06:30:59;10.50;76.60
51661;DHT22;37741;49.748;8.490;2023-04-25T06:33:24;10.50;76.50
51661;DHT22;37741;49.748;8.490;2023-04-25T06:35:50;10.50;76.30
51661;DHT22;37741;49.748;8.490;2023-04-25T06:38:16;10.50;76.20
51661;DHT22;37741;49.748;8.490;2023-04-25T06:40:41;10.50;76.00
51661;DHT22;37741;49.748;8.490;2023-04-25T06:43:07;10.50;75.90
51661;DHT22;37741;49.748;8.490;2023-04-25T06:45:33;10.50;75.80
51661;DHT22;37741;49.748;8.490;2023-04-25T06:47:58;10.50;75.60
51661;DHT22;37741;49.748;8.490;2023-04-25T06:50:24;10.50;75.50
51661;DHT22;37741;49.748;8.490;2023-04-25T06:52:49;10.50;75.40
51661;DHT22;37741;49.748;8.490;2023-04-25T06:55:15;10.40;75.30
51661;DHT22;37741;49.748;8.490;2023-04-25T06:57:41;10.40;75.10
51661;DHT22;37741;49.748;8.490;2023-04-25T07:00:07;10.40;75.00
51661;DHT22;37741;49.748;8.490;2023-04-25T07:02:35;10.40;74.70
51661;DHT22;37741;49.748;8.490;2023-04-25T07:05:01;10.40;75.00
51661;DHT22;37741;49.748;8.490;2023-04-25T07:07:32;10.40;74.80
51661;DHT22;37741;49.748;8.490;2023-04-25T07:09:58;10.40;74.60
51661;DHT22;37741;49.748;8.490;2023-04-25T07:12:23;10.40;75.00
51661;DHT22;37741;49.748;8.490;2023-04-25T07:14:49;10.40;75.20
51661;DHT22;37741;49.748;8.490;2023-04-25T07:17:14;10.40;75.10
51661;DHT22;37741;49.748;8.490;2023-04-25T07:19:40;10.40;74.60
51661;DHT22;37741;49.748;8.490;2023-04-25T07:22:06;10.40;75.00
51661;DHT22;37741;49.748;8.490;2023-04-25T07:24:32;10.40;75.00
51661;DHT22;37741;49.748;8.490;2023-04-25T07:26:58;10.40;75.10
51661;DHT22;37741;49.748;8.490;2023-04-25T07:29:23;10.40;75.10
51661;DHT22;37741;49.748;8.490;2023-04-25T07:31:49;10.40;74.80
51661;DHT22;37741;49.748;8.490;2023-04-25T07:34:15;10.40;75.00
51661;DHT22;37741;49.748;8.490;2023-04-25T07:36:41;10.40;75.10
51661;DHT22;37741;49.748;8.490;2023-04-25T07:39:07;10.40;74.20
51661;DHT22;37741;49.748;8.490;2023-04-25T07:41:34;10.40;74.10
51661;DHT22;37741;49.748;8.490;2023-04-25T07:44:00;10.40;74.10
51661;DHT22;37741;49.748;8.490;2023-04-25T07:46:26;10.40;74.00
51661;DHT22;37741;49.748;8.490;2023-04-25T07:48:51;10.40;74.40
51661;DHT22;37741;49.748;8.490;2023-04-25T07:51:17;10.40;74.70
51661;DHT22;37741;49.748;8.490;2023-04-25T07:53:45;10.40;74.70
51661;DHT22;37741;49.748;8.490;2023-04-25T07:56:11;10.40;74.90
51661;DHT22;37741;49.748;8.490;2023-04-25T07:58:36;10.40;74.40
51661;DHT22;37741;49.748;8.490;2023-04-25T08:01:02;10.40;74.60
51661;DHT22;37741;49.748;8.490;2023-04-25T08:03:28;10.40;74.70
51661;DHT22;37741;49.748;8.490;2023-04-25T08:05:53;10.40;74.40
51661;DHT22;37741;49.748;8.490;2023-04-25T08:08:19;10.40;74.80
51661;DHT22;37741;49.748;8.490;2023-04-25T08:10:45;10.40;74.30
51661;DHT22;37741;49.748;8.490;2023-04-25T08:13:10;10.40;74.20
51661;DHT22;37741;49.748;8.490;2023-04-25T08:15:36;10.40;74.30
51661;DHT22;37741;49.748;8.490;2023-04-25T08:18:02;10.40;74.30
51661;DHT22;37741;49.748;8.490;2023-04-25T08:20:27;10.50;74.50
51661;DHT22;37741;49.748;8.490;2023-04-25T08:22:53;10.50;74.30
51661;DHT22;37741;49.748;8.490;2023-04-25T08:25:19;10.40;74.30
51661;DHT22;37741;49.748;8.490;2023-04-25T08:27:45;10.50;74.50
51661;DHT22;37741;49.748;8.490;2023-04-25T08:30:10;10.50;74.50
51661;DHT22;37741;49.748;8.490;2023-04-25T08:32:36;10.50;73.80
51661;DHT22;37741;49.748;8.490;2023-04-25T08:35:04;10.50;74.00
51661;DHT22;37741;49.748;8.490;2023-04-25T08:37:30;10.50;73.70
51661;DHT22;37741;49.748;8.490;2023-04-25T08:39:56;10.50;74.00
51661;DHT22;37741;49.748;8.490;2023-04-25T08:42:23;10.50;74.20
51661;DHT22;37741;49.748;8.490;2023-04-25T08:44:50;10.50;74.00
51661;DHT22;37741;49.748;8.490;2023-04-25T08:47:22;10.50;74.20
51661;DHT22;37741;49.748;8.490;2023-04-25T08:49:48;10.50;74.10
51661;DHT22;37741;49.748;8.490;2023-04-25T08:52:15;10.50;74.30
51661;DHT22;37741;49.748;8.490;2023-04-25T08:54:47;10.60;73.10
51661;DHT22;37741;49.748;8.490;2023-04-25T08:57:14;10.60;73.20
51661;DHT22;37741;49.748;8.490;2023-04-25T08:59:41;10.60;73.40
51661;DHT22;37741;49.748;8.490;2023-04-25T09:02:11;10.60;73.40
51661;DHT22;37741;49.748;8.490;2023-04-25T09:04:40;10.60;73.70
51661;DHT22;37741;49.748;8.490;2023-04-25T09:07:06;10.60;73.60
51661;DHT22;37741;49.748;8.490;2023-04-25T09:09:31;10.60;73.90
51661;DHT22;37741;49.748;8.490;2023-04-25T09:11:57;10.70;74.00
51661;DHT22;37741;49.748;8.490;2023-04-25T09:14:24;10.70;73.90
51661;DHT22;37741;49.748;8.490;2023-04-25T09:19:23;10.70;74.00
51661;DHT22;37741;49.748;8.490;2023-04-25T09:21:49;10.70;73.60
51661;DHT22;37741;49.748;8.490;2023-04-25T09:24:15;10.70;73.60
51661;DHT22;37741;49.748;8.490;2023-04-25T09:26:41;10.80;73.50
51661;DHT22;37741;49.748;8.490;2023-04-25T09:29:07;10.80;73.10
51661;DHT22;37741;49.748;8.490;2023-04-25T09:31:33;10.80;71.90
51661;DHT22;37741;49.748;8.490;2023-04-25T09:33:59;10.80;72.80
51661;DHT22;37741;49.748;8.490;2023-04-25T09:36:30;10.80;72.80
51661;DHT22;37741;49.748;8.490;2023-04-25T09:38:55;10.80;72.90
51661;DHT22;37741;49.748;8.490;2023-04-25T09:41:24;10.90;73.10
51661;DHT22;37741;49.748;8.490;2023-04-25T09:43:50;10.90;72.60
51661;DHT22;37741;49.748;8.490;2023-04-25T09:46:16;10.90;73.20
51661;DHT22;37741;49.748;8.490;2023-04-25T09:48:49;10.90;73.10
51661;DHT22;37741;49.748;8.490;2023-04-25T09:51:15;10.90;72.70
51661;DHT22;37741;49.748;8.490;2023-04-25T09:53:43;10.90;73.00
51661;DHT22;37741;49.748;8.490;2023-04-25T09:56:10;11.00;72.30
51661;DHT22;37741;49.748;8.490;2023-04-25T09:58:37;11.00;71.60
51661;DHT22;37741;49.748;8.490;2023-04-25T10:01:05;11.00;69.80
51661;DHT22;37741;49.748;8.490;2023-04-25T10:03:37;11.00;70.90
51661;DHT22;37741;49.748;8.490;2023-04-25T10:06:07;11.00;70.70
51661;DHT22;37741;49.748;8.490;2023-04-25T10:08:35;11.10;68.60
51661;DHT22;37741;49.748;8.490;2023-04-25T10:11:06;11.00;68.90
51661;DHT22;37741;49.748;8.490;2023-04-25T10:13:33;11.10;69.00
51661;DHT22;37741;49.748;8.490;2023-04-25T10:16:01;11.10;68.30
51661;DHT22;37741;49.748;8.490;2023-04-25T10:18:28;11.10;68.80
51661;DHT22;37741;49.748;8.490;2023-04-25T10:21:03;11.10;68.80
51661;DHT22;37741;49.748;8.490;2023-04-25T10:23:30;11.10;69.60
51661;DHT22;37741;49.748;8.490;2023-04-25T10:25:57;11.10;70.10
51661;DHT22;37741;49.748;8.490;2023-04-25T10:28:22;11.20;70.30
51661;DHT22;37741;49.748;8.490;2023-04-25T10:31:01;11.20;69.50
51661;DHT22;37741;49.748;8.490;2023-04-25T10:33:37;11.20;69.50
51661;DHT22;37741;49.748;8.490;2023-04-25T10:36:10;11.20;68.90
51661;DHT22;37741;49.748;8.490;2023-04-25T10:38:36;11.20;68.60
51661;DHT22;37741;49.748;8.490;2023-04-25T10:41:07;11.30;69.10
51661;DHT22;37741;49.748;8.490;2023-04-25T10:43:41;11.20;69.30
51661;DHT22;37741;49.748;8.490;2023-04-25T10:51:36;11.30;68.60
51661;DHT22;37741;49.748;8.490;2023-04-25T10:54:06;11.30;68.80
51661;DHT22;37741;49.748;8.490;2023-04-25T10:56:42;11.30;68.20
51661;DHT22;37741;49.748;8.490;2023-04-25T10:59:17;11.30;69.00
51661;DHT22;37741;49.748;8.490;2023-04-25T11:01:46;11.30;69.40
51661;DHT22;37741;49.748;8.490;2023-04-25T11:04:30;11.30;68.80
51661;DHT22;37741;49.748;8.490;2023-04-25T11:09:45;11.30;69.30
51661;DHT22;37741;49.748;8.490;2023-04-25T11:12:11;11.40;68.70
51661;DHT22;37741;49.748;8.490;2023-04-25T11:14:38;11.40;68.50
51661;DHT22;37741;49.748;8.490;2023-04-25T11:17:03;11.40;68.40
51661;DHT22;37741;49.748;8.490;2023-04-25T11:19:29;11.40;69.00
51661;DHT22;37741;49.748;8.490;2023-04-25T11:22:00;11.40;68.00
51661;DHT22;37741;49.748;8.490;2023-04-25T11:24:34;11.40;68.70
51661;DHT22;37741;49.748;8.490;2023-04-25T11:27:00;11.50;67.50
51661;DHT22;37741;49.748;8.490;2023-04-25T11:29:30;11.50;68.40
51661;DHT22;37741;49.748;8.490;2023-04-25T11:31:57;11.60;67.00
51661;DHT22;37741;49.748;8.490;2023-04-25T11:34:27;11.60;67.70
51661;DHT22;37741;49.748;8.490;2023-04-25T11:36:55;11.60;67.80
51661;DHT22;37741;49.748;8.490;2023-04-25T11:39:21;11.60;68.10
51661;DHT22;37741;49.748;8.490;2023-04-25T11:41:47;11.70;68.40
51661;DHT22;37741;49.748;8.490;2023-04-25T11:44:16;11.70;68.40
51661;DHT22;37741;49.748;8.490;2023-04-25T11:46:42;11.80;68.50
51661;DHT22;37741;49.748;8.490;2023-04-25T11:49:08;11.80;68.20
51661;DHT22;37741;49.748;8.490;2023-04-25T11:51:47;11.80;66.80
51661;DHT22;37741;49.748;8.490;2023-04-25T11:54:14;11.80;66.90
51661;DHT22;37741;49.748;8.490;2023-04-25T11:56:43;11.80;66.70
51661;DHT22;37741;49.748;8.490;2023-04-25T11:59:10;11.90;67.20
51661;DHT22;37741;49.748;8.490;2023-04-25T12:01:38;11.90;66.30
51661;DHT22;37741;49.748;8.490;2023-04-25T12:06:41;12.00;66.70
51661;DHT22;37741;49.748;8.490;2023-04-25T12:09:09;12.00;65.80
51661;DHT22;37741;49.748;8.490;2023-04-25T12:12:01;12.00;66.10
51661;DHT22;37741;49.748;8.490;2023-04-25T12:14:32;12.00;65.90
51661;DHT22;37741;49.748;8.490;2023-04-25T12:17:00;12.10;65.50
51661;DHT22;37741;49.748;8.490;2023-04-25T12:19:35;12.10;66.20
51661;DHT22;37741;49.748;8.490;2023-04-25T12:22:02;12.10;65.20
51661;DHT22;37741;49.748;8.490;2023-04-25T12:24:33;12.10;65.40
51661;DHT22;37741;49.748;8.490;2023-04-25T12:27:02;12.10;65.70
51661;DHT22;37741;49.748;8.490;2023-04-25T12:29:30;12.10;66.90
51661;DHT22;37741;49.748;8.490;2023-04-25T12:31:56;12.20;66.60
51661;DHT22;37741;49.748;8.490;2023-04-25T12:34:23;12.20;65.40
51661;DHT22;37741;49.748;8.490;2023-04-25T12:36:50;12.20;65.90
51661;DHT22;37741;49.748;8.490;2023-04-25T12:39:20;12.20;65.00
51661;DHT22;37741;49.748;8.490;2023-04-25T12:41:50;12.20;65.00
51661;DHT22;37741;49.748;8.490;2023-04-25T12:44:19;12.20;66.20
51661;DHT22;37741;49.748;8.490;2023-04-25T12:46:45;12.20;65.40
51661;DHT22;37741;49.748;8.490;2023-04-25T12:49:10;12.20;65.40
51661;DHT22;37741;49.748;8.490;2023-04-25T12:51:37;12.20;66.20
51661;DHT22;37741;49.748;8.490;2023-04-25T12:54:05;12.20;65.50
51661;DHT22;37741;49.748;8.490;2023-04-25T12:56:32;12.20;65.30
51661;DHT22;37741;49.748;8.490;2023-04-25T12:58:58;12.20;66.20
51661;DHT22;37741;49.748;8.490;2023-04-25T13:01:24;12.30;66.80
51661;DHT22;37741;49.748;8.490;2023-04-25T13:03:50;12.30;66.30
51661;DHT22;37741;49.748;8.490;2023-04-25T13:06:18;12.30;64.70
51661;DHT22;37741;49.748;8.490;2023-04-25T13:08:44;12.30;65.70
51661;DHT22;37741;49.748;8.490;2023-04-25T13:11:10;12.40;63.90
51661;DHT22;37741;49.748;8.490;2023-04-25T13:13:37;12.40;63.70
51661;DHT22;37741;49.748;8.490;2023-04-25T13:16:03;12.50;64.60
51661;DHT22;37741;49.748;8.490;2023-04-25T13:18:30;12.50;64.80
51661;DHT22;37741;49.748;8.490;2023-04-25T13:20:57;12.60;63.60
51661;DHT22;37741;49.748;8.490;2023-04-25T13:23:24;12.60;63.80
51661;DHT22;37741;49.748;8.490;2023-04-25T13:25:51;12.60;63.60
51661;DHT22;37741;49.748;8.490;2023-04-25T13:28:17;12.70;62.70
51661;DHT22;37741;49.748;8.490;2023-04-25T13:30:43;12.70;63.60
51661;DHT22;37741;49.748;8.490;2023-04-25T13:33:08;12.70;63.50
51661;DHT22;37741;49.748;8.490;2023-04-25T13:35:35;12.70;62.80
51661;DHT22;37741;49.748;8.490;2023-04-25T13:38:01;12.70;61.90
51661;DHT22;37741;49.748;8.490;2023-04-25T13:40:27;12.80;63.30
51661;DHT22;37741;49.748;8.490;2023-04-25T13:42:54;12.80;62.00
51661;DHT22;37741;49.748;8.490;2023-04-25T13:45:20;12.80;61.40
51661;DHT22;37741;49.748;8.490;2023-04-25T13:47:46;12.80;61.00
51661;DHT22;37741;49.748;8.490;2023-04-25T13:50:13;12.80;61.40
51661;DHT22;37741;49.748;8.490;2023-04-25T13:52:39;12.80;60.60
51661;DHT22;37741;49.748;8.490;2023-04-25T13:55:06;12.80;60.80
51661;DHT22;37741;49.748;8.490;2023-04-25T13:57:32;12.80;60.60
51661;DHT22;37741;49.748;8.490;2023-04-25T13:59:58;12.90;62.20
51661;DHT22;37741;49.748;8.490;2023-04-25T14:02:24;12.90;61.80
51661;DHT22;37741;49.748;8.490;2023-04-25T14:04:51;12.90;62.60
51661;DHT22;37741;49.748;8.490;2023-04-25T14:07:16;12.90;62.00
51661;DHT22;37741;49.748;8.490;2023-04-25T14:09:43;12.90;61.50
51661;DHT22;37741;49.748;8.490;2023-04-25T14:12:09;12.90;61.30
51661;DHT22;37741;49.748;8.490;2023-04-25T14:14:36;13.00;60.10
51661;DHT22;37741;49.748;8.490;2023-04-25T14:17:03;13.00;61.20
51661;DHT22;37741;49.748;8.490;2023-04-25T14:19:28;12.90;61.50
51661;DHT22;37741;49.748;8.490;2023-04-25T14:21:54;13.00;60.80
51661;DHT22;37741;49.748;8.490;2023-04-25T14:24:20;13.00;61.40
51661;DHT22;37741;49.748;8.490;2023-04-25T14:26:46;13.00;62.90
51661;DHT22;37741;49.748;8.490;2023-04-25T14:29:12;13.00;61.90
51661;DHT22;37741;49.748;8.490;2023-04-25T14:31:38;13.00;61.20
51661;DHT22;37741;49.748;8.490;2023-04-25T14:34:05;12.90;59.80
51661;DHT22;37741;49.748;8.490;2023-04-25T14:36:31;12.90;61.40
51661;DHT22;37741;49.748;8.490;2023-04-25T14:38:57;12.90;62.00
51661;DHT22;37741;49.748;8.490;2023-04-25T14:41:25;12.90;60.90
51661;DHT22;37741;49.748;8.490;2023-04-25T14:43:51;12.90;61.60
51661;DHT22;37741;49.748;8.490;2023-04-25T14:46:18;12.90;61.60
51661;DHT22;37741;49.748;8.490;2023-04-25T14:48:44;12.90;62.60
51661;DHT22;37741;49.748;8.490;2023-04-25T14:51:10;12.90;62.70
51661;DHT22;37741;49.748;8.490;2023-04-25T14:53:36;13.00;63.50
51661;DHT22;37741;49.748;8.490;2023-04-25T14:56:02;12.90;63.40
51661;DHT22;37741;49.748;8.490;2023-04-25T14:58:28;12.90;63.50
51661;DHT22;37741;49.748;8.490;2023-04-25T15:00:53;12.90;63.40
51661;DHT22;37741;49.748;8.490;2023-04-25T15:03:19;13.00;61.00
51661;DHT22;37741;49.748;8.490;2023-04-25T15:05:45;12.90;59.80
51661;DHT22;37741;49.748;8.490;2023-04-25T15:08:10;13.00;60.80
51661;DHT22;37741;49.748;8.490;2023-04-25T15:10:36;13.00;61.20
51661;DHT22;37741;49.748;8.490;2023-04-25T15:13:03;13.00;61.70
51661;DHT22;37741;49.748;8.490;2023-04-25T15:15:29;13.00;61.80
51661;DHT22;37741;49.748;8.490;2023-04-25T15:17:55;13.00;61.80
51661;DHT22;37741;49.748;8.490;2023-04-25T15:20:21;13.10;61.80
51661;DHT22;37741;49.748;8.490;2023-04-25T15:22:47;13.10;61.40
51661;DHT22;37741;49.748;8.490;2023-04-25T15:25:16;13.10;60.30
51661;DHT22;37741;49.748;8.490;2023-04-25T15:27:45;13.10;60.40
51661;DHT22;37741;49.748;8.490;2023-04-25T15:30:14;13.10;60.90
51661;DHT22;37741;49.748;8.490;2023-04-25T15:32:44;13.10;59.60
51661;DHT22;37741;49.748;8.490;2023-04-25T15:35:10;13.10;59.10
51661;DHT22;37741;49.748;8.490;2023-04-25T15:37:37;13.10;59.20
51661;DHT22;37741;49.748;8.490;2023-04-25T15:40:05;13.10;57.80